Campanya Meteocatpedra
Centenari de l'SMC: 100 anys mirant el cel

Dades de l'estació automàtica Santa Coloma de Farners

?
?

Resum diari

22:30 TU
Dades diàries de l'estació meteorològica
Temperatura mitjana 17.0 °C
Temperatura màxima 24.4 °C 11:36 TU
Temperatura mínima 13.6 °C 22:59 TU
Humitat relativa mitjana 84%
Precipitació acumulada 3.3 mm
Ratxa màxima del vent (10 m) 27.4 km/h - 176º 12:03 TU
Irradiació solar global 9.9 MJ/m2

El tram horari està expressat en Temps Universal (TU). Cal sumar una hora en horari d'hivern i dues en horari d'estiu per passar a l'hora oficial.

Santa Coloma de Farners

Metadades estació meteorològica
Municipi Santa Coloma de Farners
Comarca Selva
Altitud 162 m
Data alta 26.03.2013
Estat actual Operativa
Dades de període
Període
TU
TM
°C
TX
°C
TN
°C
HRM
%
PPT
mm
VVM (10 m)
km/h
DVM (10 m)
graus
VVX (10 m)
km/h
RS
W/m2
00:00 - 00:30 15.2 15.3 15.0 88 0.0 5.8 308 11.2 0
00:30 - 01:00 15.1 15.3 15.0 88 0.0 5.4 311 9.4 0
01:00 - 01:30 15.1 15.3 15.1 88 0.0 5.0 302 9.4 0
01:30 - 02:00 15.2 15.3 15.1 88 0.0 5.0 300 11.2 0
02:00 - 02:30 15.3 15.4 15.3 88 0.0 4.3 310 9.0 0
02:30 - 03:00 15.3 15.3 15.2 89 0.0 4.0 308 7.9 0
03:00 - 03:30 15.0 15.3 14.8 89 0.0 4.3 307 8.3 0
03:30 - 04:00 14.8 14.9 14.8 89 0.0 4.7 301 9.0 0
04:00 - 04:30 15.0 15.1 14.9 89 0.0 5.0 299 10.1 0
04:30 - 05:00 15.3 15.3 15.2 88 0.0 4.3 303 9.7 0
05:00 - 05:30 15.4 15.5 15.3 86 0.0 5.0 306 9.0 0
05:30 - 06:00 15.6 15.8 15.5 85 0.0 4.3 306 11.2 9
06:00 - 06:30 15.9 16.2 15.8 84 0.0 4.0 311 8.3 39
06:30 - 07:00 16.5 16.6 16.3 82 0.0 3.2 325 8.3 69
07:00 - 07:30 17.1 17.7 16.6 80 0.0 2.5 299 5.4 133
07:30 - 08:00 18.5 19.3 17.7 76 0.0 3.2 285 5.8 287
08:00 - 08:30 20.6 21.8 19.4 69 0.0 2.5 358 10.1 417
08:30 - 09:00 22.1 22.6 21.7 66 0.0 5.8 113 13.3 535
09:00 - 09:30 21.9 22.5 21.6 67 0.0 6.5 152 14.8 525
09:30 - 10:00 22.5 23.2 22.0 64 0.0 5.8 161 13.3 505
10:00 - 10:30 22.9 24.0 22.3 61 0.0 6.5 160 14.8 578
10:30 - 11:00 23.5 24.0 23.2 58 0.0 7.9 127 17.3 777
11:00 - 11:30 23.1 23.6 22.7 60 0.0 9.4 126 22.3 435
11:30 - 12:00 23.6 24.4 23.0 62 0.0 12.2 156 24.5 554
12:00 - 12:30 21.2 23.0 19.0 69 0.0 10.8 136 27.4 119
12:30 - 13:00 18.3 19.1 17.8 80 0.0 11.2 80 20.9 125
13:00 - 13:30 17.9 18.5 17.6 84 0.0 5.0 348 12.2 98
13:30 - 14:00 17.7 18.0 17.1 84 0.2 5.4 52 13.0 64
14:00 - 14:30 16.9 17.0 16.7 91 0.9 2.9 29 6.1 55
14:30 - 15:00 16.6 16.9 16.1 91 0.2 5.0 59 19.1 56
15:00 - 15:30 16.4 16.5 16.1 93 0.1 4.7 309 10.8 17
15:30 - 16:00 16.1 16.5 15.8 93 0.5 5.0 13 12.2 24
16:00 - 16:30 15.9 16.1 15.8 93 0.7 4.0 327 10.4 85
16:30 - 17:00 15.8 15.9 15.7 91 0.0 5.8 336 10.4 21
17:00 - 17:30 16.0 16.2 15.9 89 0.0 6.1 305 16.9 11
17:30 - 18:00 15.5 15.8 15.3 92 0.1 5.4 357 10.8 3
18:00 - 18:30 15.5 15.7 15.3 93 0.2 4.7 325 11.5 0
18:30 - 19:00 15.3 15.5 15.1 94 0.4 4.3 302 13.7 0
19:00 - 19:30 15.0 15.2 14.9 95 0.0 3.2 337 6.1 0
19:30 - 20:00 15.0 15.2 14.8 94 0.0 4.7 347 13.0 0
20:00 - 20:30 14.7 14.9 14.6 95 0.0 3.6 351 7.9 0
20:30 - 21:00 14.7 14.9 14.5 96 0.0 4.3 327 8.3 0
21:00 - 21:30 14.5 14.6 14.5 95 0.0 4.3 309 16.2 0
21:30 - 22:00 14.3 14.7 14.0 93 0.0 5.4 320 13.0 0
22:00 - 22:30 13.8 14.0 13.6 93 0.0 6.8 316 13.3 0
22:30 - 23:00 13.7 13.7 13.6 92 0.0 6.8 300 14.4 0

Les dades en taronja només han passat un control de qualitat automàtic. Resta pendent la seva validació definitiva.